Bison, Oklahoma
Current Conditions -  °F | °C
As of 7:55 AM on Monday 20 Oct 2014 (Local Time) from KEND Reporting Station
Haze Haze  
Wind Chill: 55°   Ceiling: Unl
Heat Index: 55°   Visibility: 5mi
Dew Point: 55°   Wind: 6mph
Humidity: 100%   Direction: 210°SSW
Pressure: 30.02"   Gusts: NA
Location:  36.2°N, 97.89°W
Report Text: KEND 201255Z 21005KT 5SM BR SCT070 13/13 A3002 RMK AO2A SLP163
Loading
Personal Weather Stations






























Interactive Weather Map
Tropical Storm Tracking
New forecast layout! Learn more

10-Day Weather Forecast

Advertisements
Track Severe Weather on mobile